sensor_id;sensor_type;location;lat;lon;timestamp;P1;durP1;ratioP1;P2;durP2;ratioP2
3811;SDS011;1921;49.368;11.068;2022-07-22T00:01:08;63.27;;;56.47;;
3811;SDS011;1921;49.368;11.068;2022-07-22T00:03:34;61.80;;;55.10;;
3811;SDS011;1921;49.368;11.068;2022-07-22T00:06:00;62.80;;;56.03;;
3811;SDS011;1921;49.368;11.068;2022-07-22T00:08:26;63.77;;;56.97;;
3811;SDS011;1921;49.368;11.068;2022-07-22T00:10:52;65.33;;;56.07;;
3811;SDS011;1921;49.368;11.068;2022-07-22T00:13:18;63.20;;;56.40;;
3811;SDS011;1921;49.368;11.068;2022-07-22T00:15:44;63.20;;;56.30;;
3811;SDS011;1921;49.368;11.068;2022-07-22T00:18:09;62.90;;;56.10;;
3811;SDS011;1921;49.368;11.068;2022-07-22T00:20:35;63.37;;;56.57;;
3811;SDS011;1921;49.368;11.068;2022-07-22T00:23:01;62.83;;;56.07;;
3811;SDS011;1921;49.368;11.068;2022-07-22T00:25:27;63.27;;;56.07;;
3811;SDS011;1921;49.368;11.068;2022-07-22T00:27:53;66.10;;;56.30;;
3811;SDS011;1921;49.368;11.068;2022-07-22T00:30:19;62.90;;;56.10;;
3811;SDS011;1921;49.368;11.068;2022-07-22T00:32:46;62.60;;;55.93;;
3811;SDS011;1921;49.368;11.068;2022-07-22T00:35:11;62.97;;;56.17;;
3811;SDS011;1921;49.368;11.068;2022-07-22T00:37:37;63.60;;;56.80;;
3811;SDS011;1921;49.368;11.068;2022-07-22T00:40:03;63.87;;;57.07;;
3811;SDS011;1921;49.368;11.068;2022-07-22T00:42:29;66.20;;;57.77;;
3811;SDS011;1921;49.368;11.068;2022-07-22T00:44:55;63.47;;;56.63;;
3811;SDS011;1921;49.368;11.068;2022-07-22T00:47:22;63.07;;;56.20;;
3811;SDS011;1921;49.368;11.068;2022-07-22T00:49:48;62.80;;;56.10;;
3811;SDS011;1921;49.368;11.068;2022-07-22T00:52:14;66.53;;;57.43;;
3811;SDS011;1921;49.368;11.068;2022-07-22T00:54:39;63.57;;;56.77;;
3811;SDS011;1921;49.368;11.068;2022-07-22T00:57:05;62.97;;;56.17;;
3811;SDS011;1921;49.368;11.068;2022-07-22T00:59:31;63.50;;;56.60;;
3811;SDS011;1921;49.368;11.068;2022-07-22T01:01:57;65.30;;;56.83;;
3811;SDS011;1921;49.368;11.068;2022-07-22T01:04:23;64.07;;;57.17;;
3811;SDS011;1921;49.368;11.068;2022-07-22T01:06:49;65.70;;;56.40;;
3811;SDS011;1921;49.368;11.068;2022-07-22T01:09:14;63.40;;;56.50;;
3811;SDS011;1921;49.368;11.068;2022-07-22T01:11:40;63.93;;;56.90;;
3811;SDS011;1921;49.368;11.068;2022-07-22T01:14:07;64.73;;;57.60;;
3811;SDS011;1921;49.368;11.068;2022-07-22T01:16:33;66.73;;;57.63;;
3811;SDS011;1921;49.368;11.068;2022-07-22T01:18:58;64.20;;;57.20;;
3811;SDS011;1921;49.368;11.068;2022-07-22T01:21:24;64.70;;;57.63;;
3811;SDS011;1921;49.368;11.068;2022-07-22T01:23:50;63.80;;;56.80;;
3811;SDS011;1921;49.368;11.068;2022-07-22T01:26:16;65.50;;;57.60;;
3811;SDS011;1921;49.368;11.068;2022-07-22T01:28:42;62.97;;;56.07;;
3811;SDS011;1921;49.368;11.068;2022-07-22T01:31:08;66.07;;;57.40;;
3811;SDS011;1921;49.368;11.068;2022-07-22T01:33:34;64.57;;;56.20;;
3811;SDS011;1921;49.368;11.068;2022-07-22T01:36:01;65.20;;;56.80;;
3811;SDS011;1921;49.368;11.068;2022-07-22T01:38:28;65.07;;;56.53;;
3811;SDS011;1921;49.368;11.068;2022-07-22T01:40:53;66.67;;;56.43;;
3811;SDS011;1921;49.368;11.068;2022-07-22T01:43:19;67.17;;;57.17;;
3811;SDS011;1921;49.368;11.068;2022-07-22T01:45:46;62.57;;;55.77;;
3811;SDS011;1921;49.368;11.068;2022-07-22T01:48:16;63.27;;;56.20;;
3811;SDS011;1921;49.368;11.068;2022-07-22T01:50:42;63.20;;;56.17;;
3811;SDS011;1921;49.368;11.068;2022-07-22T01:53:08;64.13;;;56.60;;
3811;SDS011;1921;49.368;11.068;2022-07-22T01:55:34;63.93;;;56.97;;
3811;SDS011;1921;49.368;11.068;2022-07-22T01:58:00;62.30;;;55.43;;
3811;SDS011;1921;49.368;11.068;2022-07-22T02:00:26;62.93;;;56.13;;
3811;SDS011;1921;49.368;11.068;2022-07-22T02:02:52;62.37;;;55.67;;
3811;SDS011;1921;49.368;11.068;2022-07-22T02:05:18;66.70;;;56.37;;
3811;SDS011;1921;49.368;11.068;2022-07-22T02:07:43;62.33;;;55.57;;
3811;SDS011;1921;49.368;11.068;2022-07-22T02:10:09;64.33;;;56.17;;
3811;SDS011;1921;49.368;11.068;2022-07-22T02:12:35;64.60;;;55.67;;
3811;SDS011;1921;49.368;11.068;2022-07-22T02:15:00;64.83;;;56.83;;
3811;SDS011;1921;49.368;11.068;2022-07-22T02:17:27;67.60;;;56.17;;
3811;SDS011;1921;49.368;11.068;2022-07-22T02:19:52;63.07;;;56.27;;
3811;SDS011;1921;49.368;11.068;2022-07-22T02:22:18;63.07;;;55.60;;
3811;SDS011;1921;49.368;11.068;2022-07-22T02:24:44;65.57;;;55.50;;
3811;SDS011;1921;49.368;11.068;2022-07-22T02:27:09;63.50;;;56.23;;
3811;SDS011;1921;49.368;11.068;2022-07-22T02:29:36;62.93;;;56.17;;
3811;SDS011;1921;49.368;11.068;2022-07-22T02:32:02;64.70;;;56.23;;
3811;SDS011;1921;49.368;11.068;2022-07-22T02:34:28;63.47;;;56.57;;
3811;SDS011;1921;49.368;11.068;2022-07-22T02:36:53;63.93;;;56.93;;
3811;SDS011;1921;49.368;11.068;2022-07-22T02:39:19;62.70;;;55.80;;
3811;SDS011;1921;49.368;11.068;2022-07-22T02:41:45;61.93;;;55.33;;
3811;SDS011;1921;49.368;11.068;2022-07-22T02:44:11;63.83;;;56.57;;
3811;SDS011;1921;49.368;11.068;2022-07-22T02:46:36;62.87;;;56.07;;
3811;SDS011;1921;49.368;11.068;2022-07-22T02:49:02;64.30;;;56.33;;
3811;SDS011;1921;49.368;11.068;2022-07-22T02:51:29;68.10;;;55.63;;
3811;SDS011;1921;49.368;11.068;2022-07-22T02:53:55;63.03;;;56.13;;
3811;SDS011;1921;49.368;11.068;2022-07-22T02:56:21;65.57;;;55.90;;
3811;SDS011;1921;49.368;11.068;2022-07-22T02:58:47;64.17;;;56.90;;
3811;SDS011;1921;49.368;11.068;2022-07-22T03:01:17;64.50;;;57.40;;
3811;SDS011;1921;49.368;11.068;2022-07-22T03:03:43;65.00;;;57.80;;
3811;SDS011;1921;49.368;11.068;2022-07-22T03:06:09;64.33;;;57.30;;
3811;SDS011;1921;49.368;11.068;2022-07-22T03:08:35;67.73;;;56.47;;
3811;SDS011;1921;49.368;11.068;2022-07-22T03:11:02;63.57;;;56.57;;
3811;SDS011;1921;49.368;11.068;2022-07-22T03:13:28;64.67;;;56.53;;
3811;SDS011;1921;49.368;11.068;2022-07-22T03:15:54;63.07;;;56.17;;
3811;SDS011;1921;49.368;11.068;2022-07-22T03:18:20;67.50;;;57.57;;
3811;SDS011;1921;49.368;11.068;2022-07-22T03:20:45;66.10;;;57.07;;
3811;SDS011;1921;49.368;11.068;2022-07-22T03:23:11;65.73;;;57.03;;
3811;SDS011;1921;49.368;11.068;2022-07-22T03:25:37;64.33;;;56.33;;
3811;SDS011;1921;49.368;11.068;2022-07-22T03:28:04;64.87;;;56.70;;
3811;SDS011;1921;49.368;11.068;2022-07-22T03:30:30;63.93;;;56.90;;
3811;SDS011;1921;49.368;11.068;2022-07-22T03:32:56;66.50;;;57.13;;
3811;SDS011;1921;49.368;11.068;2022-07-22T03:35:21;63.40;;;56.43;;
3811;SDS011;1921;49.368;11.068;2022-07-22T03:37:47;65.10;;;56.80;;
3811;SDS011;1921;49.368;11.068;2022-07-22T03:40:14;63.70;;;56.70;;
3811;SDS011;1921;49.368;11.068;2022-07-22T03:42:40;63.93;;;57.03;;
3811;SDS011;1921;49.368;11.068;2022-07-22T03:45:07;63.80;;;56.83;;
3811;SDS011;1921;49.368;11.068;2022-07-22T03:47:34;65.53;;;57.40;;
3811;SDS011;1921;49.368;11.068;2022-07-22T03:50:00;64.37;;;57.37;;
3811;SDS011;1921;49.368;11.068;2022-07-22T03:52:27;67.60;;;57.07;;
3811;SDS011;1921;49.368;11.068;2022-07-22T03:54:53;63.60;;;56.70;;
3811;SDS011;1921;49.368;11.068;2022-07-22T03:57:19;64.47;;;56.30;;
3811;SDS011;1921;49.368;11.068;2022-07-22T03:59:45;66.73;;;57.00;;
3811;SDS011;1921;49.368;11.068;2022-07-22T04:02:12;66.00;;;56.33;;
3811;SDS011;1921;49.368;11.068;2022-07-22T04:04:37;69.40;;;57.60;;
3811;SDS011;1921;49.368;11.068;2022-07-22T04:07:03;66.83;;;58.00;;
3811;SDS011;1921;49.368;11.068;2022-07-22T04:09:29;67.33;;;57.73;;
3811;SDS011;1921;49.368;11.068;2022-07-22T04:11:55;66.20;;;57.93;;
3811;SDS011;1921;49.368;11.068;2022-07-22T04:14:21;69.10;;;58.70;;
3811;SDS011;1921;49.368;11.068;2022-07-22T04:16:47;71.30;;;57.40;;
3811;SDS011;1921;49.368;11.068;2022-07-22T04:19:13;68.23;;;57.70;;
3811;SDS011;1921;49.368;11.068;2022-07-22T04:21:39;72.03;;;59.27;;
3811;SDS011;1921;49.368;11.068;2022-07-22T04:24:05;69.13;;;58.60;;
3811;SDS011;1921;49.368;11.068;2022-07-22T04:26:31;68.00;;;57.90;;
3811;SDS011;1921;49.368;11.068;2022-07-22T04:28:57;67.73;;;58.37;;
3811;SDS011;1921;49.368;11.068;2022-07-22T04:31:23;75.17;;;60.00;;
3811;SDS011;1921;49.368;11.068;2022-07-22T04:33:49;74.20;;;59.37;;
3811;SDS011;1921;49.368;11.068;2022-07-22T04:36:14;74.40;;;59.87;;
3811;SDS011;1921;49.368;11.068;2022-07-22T04:38:40;71.60;;;60.33;;
3811;SDS011;1921;49.368;11.068;2022-07-22T04:41:06;72.50;;;60.17;;
3811;SDS011;1921;49.368;11.068;2022-07-22T04:43:32;72.93;;;60.20;;
3811;SDS011;1921;49.368;11.068;2022-07-22T04:45:58;73.73;;;60.10;;
3811;SDS011;1921;49.368;11.068;2022-07-22T04:48:24;74.77;;;61.03;;
3811;SDS011;1921;49.368;11.068;2022-07-22T04:50:49;70.30;;;59.93;;
3811;SDS011;1921;49.368;11.068;2022-07-22T04:53:15;73.27;;;60.57;;
3811;SDS011;1921;49.368;11.068;2022-07-22T04:55:41;73.57;;;61.23;;
3811;SDS011;1921;49.368;11.068;2022-07-22T04:58:07;74.70;;;60.80;;
3811;SDS011;1921;49.368;11.068;2022-07-22T05:00:32;74.83;;;61.40;;
3811;SDS011;1921;49.368;11.068;2022-07-22T05:02:58;74.93;;;61.70;;
3811;SDS011;1921;49.368;11.068;2022-07-22T05:05:24;76.60;;;60.90;;
3811;SDS011;1921;49.368;11.068;2022-07-22T05:07:50;74.83;;;60.93;;
3811;SDS011;1921;49.368;11.068;2022-07-22T05:10:16;72.67;;;61.30;;
3811;SDS011;1921;49.368;11.068;2022-07-22T05:12:41;73.57;;;60.50;;
3811;SDS011;1921;49.368;11.068;2022-07-22T05:15:07;71.60;;;60.23;;
3811;SDS011;1921;49.368;11.068;2022-07-22T05:17:34;74.40;;;60.80;;
3811;SDS011;1921;49.368;11.068;2022-07-22T05:20:01;71.10;;;60.20;;
3811;SDS011;1921;49.368;11.068;2022-07-22T05:22:29;73.03;;;60.13;;
3811;SDS011;1921;49.368;11.068;2022-07-22T05:24:55;74.77;;;60.60;;
3811;SDS011;1921;49.368;11.068;2022-07-22T05:27:21;73.60;;;61.17;;
3811;SDS011;1921;49.368;11.068;2022-07-22T05:29:46;72.67;;;61.33;;
3811;SDS011;1921;49.368;11.068;2022-07-22T05:32:12;72.40;;;61.70;;
3811;SDS011;1921;49.368;11.068;2022-07-22T05:34:38;74.90;;;60.37;;
3811;SDS011;1921;49.368;11.068;2022-07-22T05:37:04;73.27;;;60.80;;
3811;SDS011;1921;49.368;11.068;2022-07-22T05:39:30;70.30;;;59.67;;
3811;SDS011;1921;49.368;11.068;2022-07-22T05:41:56;71.50;;;59.80;;
3811;SDS011;1921;49.368;11.068;2022-07-22T05:44:21;73.97;;;60.30;;
3811;SDS011;1921;49.368;11.068;2022-07-22T05:46:47;72.17;;;59.97;;
3811;SDS011;1921;49.368;11.068;2022-07-22T05:49:13;71.80;;;59.87;;
3811;SDS011;1921;49.368;11.068;2022-07-22T05:51:38;72.83;;;60.70;;
3811;SDS011;1921;49.368;11.068;2022-07-22T05:54:04;71.43;;;59.30;;
3811;SDS011;1921;49.368;11.068;2022-07-22T05:56:30;70.73;;;59.70;;
3811;SDS011;1921;49.368;11.068;2022-07-22T05:58:56;73.90;;;59.73;;
3811;SDS011;1921;49.368;11.068;2022-07-22T06:01:21;69.20;;;58.97;;
3811;SDS011;1921;49.368;11.068;2022-07-22T06:03:48;70.30;;;59.60;;
3811;SDS011;1921;49.368;11.068;2022-07-22T06:06:14;75.70;;;60.77;;
3811;SDS011;1921;49.368;11.068;2022-07-22T06:08:40;74.07;;;61.60;;
3811;SDS011;1921;49.368;11.068;2022-07-22T06:11:05;73.27;;;60.50;;
3811;SDS011;1921;49.368;11.068;2022-07-22T06:13:31;73.00;;;61.33;;
3811;SDS011;1921;49.368;11.068;2022-07-22T06:15:58;80.83;;;61.80;;
3811;SDS011;1921;49.368;11.068;2022-07-22T06:18:24;73.07;;;59.17;;
3811;SDS011;1921;49.368;11.068;2022-07-22T06:20:50;75.27;;;60.67;;
3811;SDS011;1921;49.368;11.068;2022-07-22T06:23:16;76.60;;;60.57;;
3811;SDS011;1921;49.368;11.068;2022-07-22T06:25:42;82.20;;;60.83;;
3811;SDS011;1921;49.368;11.068;2022-07-22T06:28:08;72.80;;;59.50;;
3811;SDS011;1921;49.368;11.068;2022-07-22T06:30:35;74.43;;;61.23;;
3811;SDS011;1921;49.368;11.068;2022-07-22T06:33:00;75.50;;;60.50;;
3811;SDS011;1921;49.368;11.068;2022-07-22T06:35:26;77.60;;;60.93;;
3811;SDS011;1921;49.368;11.068;2022-07-22T06:37:52;75.10;;;61.20;;
3811;SDS011;1921;49.368;11.068;2022-07-22T06:40:18;72.20;;;60.90;;
3811;SDS011;1921;49.368;11.068;2022-07-22T06:42:44;79.53;;;63.00;;
3811;SDS011;1921;49.368;11.068;2022-07-22T06:45:10;73.40;;;60.67;;
3811;SDS011;1921;49.368;11.068;2022-07-22T06:47:36;74.40;;;60.80;;
3811;SDS011;1921;49.368;11.068;2022-07-22T06:50:02;71.40;;;56.97;;
3811;SDS011;1921;49.368;11.068;2022-07-22T06:52:31;72.67;;;59.17;;
3811;SDS011;1921;49.368;11.068;2022-07-22T06:54:56;75.40;;;58.70;;
3811;SDS011;1921;49.368;11.068;2022-07-22T06:57:22;71.83;;;59.03;;
3811;SDS011;1921;49.368;11.068;2022-07-22T06:59:48;73.83;;;58.83;;
3811;SDS011;1921;49.368;11.068;2022-07-22T07:02:15;72.03;;;60.83;;
3811;SDS011;1921;49.368;11.068;2022-07-22T07:04:40;72.57;;;57.00;;
3811;SDS011;1921;49.368;11.068;2022-07-22T07:07:07;70.90;;;56.73;;
3811;SDS011;1921;49.368;11.068;2022-07-22T07:09:33;73.57;;;58.47;;
3811;SDS011;1921;49.368;11.068;2022-07-22T07:11:59;68.47;;;56.90;;
3811;SDS011;1921;49.368;11.068;2022-07-22T07:14:25;67.40;;;56.77;;
3811;SDS011;1921;49.368;11.068;2022-07-22T07:16:51;74.53;;;58.70;;
3811;SDS011;1921;49.368;11.068;2022-07-22T07:19:16;71.50;;;58.90;;
3811;SDS011;1921;49.368;11.068;2022-07-22T07:21:44;76.07;;;59.60;;
3811;SDS011;1921;49.368;11.068;2022-07-22T07:24:10;73.00;;;57.90;;
3811;SDS011;1921;49.368;11.068;2022-07-22T07:26:36;72.03;;;58.40;;
3811;SDS011;1921;49.368;11.068;2022-07-22T07:29:03;74.50;;;61.40;;
3811;SDS011;1921;49.368;11.068;2022-07-22T07:31:29;76.40;;;59.30;;
3811;SDS011;1921;49.368;11.068;2022-07-22T07:33:55;74.53;;;59.67;;
3811;SDS011;1921;49.368;11.068;2022-07-22T07:36:21;73.63;;;59.60;;
3811;SDS011;1921;49.368;11.068;2022-07-22T07:38:47;68.67;;;57.10;;
3811;SDS011;1921;49.368;11.068;2022-07-22T07:41:13;74.17;;;59.93;;
3811;SDS011;1921;49.368;11.068;2022-07-22T07:43:39;72.43;;;59.97;;
3811;SDS011;1921;49.368;11.068;2022-07-22T07:46:05;67.77;;;56.40;;
3811;SDS011;1921;49.368;11.068;2022-07-22T07:48:31;75.47;;;59.13;;
3811;SDS011;1921;49.368;11.068;2022-07-22T07:50:57;73.83;;;59.00;;
3811;SDS011;1921;49.368;11.068;2022-07-22T07:53:22;69.60;;;58.10;;
3811;SDS011;1921;49.368;11.068;2022-07-22T07:55:48;70.90;;;59.03;;
3811;SDS011;1921;49.368;11.068;2022-07-22T07:58:14;70.77;;;58.63;;
3811;SDS011;1921;49.368;11.068;2022-07-22T08:00:40;70.77;;;58.13;;
3811;SDS011;1921;49.368;11.068;2022-07-22T08:03:07;70.97;;;58.50;;
3811;SDS011;1921;49.368;11.068;2022-07-22T08:05:34;67.60;;;56.17;;
3811;SDS011;1921;49.368;11.068;2022-07-22T08:08:00;71.57;;;56.90;;
3811;SDS011;1921;49.368;11.068;2022-07-22T08:10:26;71.73;;;58.77;;
3811;SDS011;1921;49.368;11.068;2022-07-22T08:12:53;74.40;;;59.37;;
3811;SDS011;1921;49.368;11.068;2022-07-22T08:15:21;82.67;;;59.33;;
3811;SDS011;1921;49.368;11.068;2022-07-22T08:17:47;69.67;;;57.67;;
3811;SDS011;1921;49.368;11.068;2022-07-22T08:20:12;71.47;;;58.80;;
3811;SDS011;1921;49.368;11.068;2022-07-22T08:22:38;74.30;;;60.90;;
3811;SDS011;1921;49.368;11.068;2022-07-22T08:25:04;75.77;;;60.10;;
3811;SDS011;1921;49.368;11.068;2022-07-22T08:27:30;76.83;;;60.93;;
3811;SDS011;1921;49.368;11.068;2022-07-22T08:29:56;75.03;;;57.27;;
3811;SDS011;1921;49.368;11.068;2022-07-22T08:32:22;73.10;;;59.90;;
3811;SDS011;1921;49.368;11.068;2022-07-22T08:34:48;69.30;;;56.40;;
3811;SDS011;1921;49.368;11.068;2022-07-22T08:37:14;73.57;;;60.80;;
3811;SDS011;1921;49.368;11.068;2022-07-22T08:39:39;70.80;;;59.30;;
3811;SDS011;1921;49.368;11.068;2022-07-22T08:42:05;73.40;;;59.77;;
3811;SDS011;1921;49.368;11.068;2022-07-22T08:44:31;74.00;;;60.13;;
3811;SDS011;1921;49.368;11.068;2022-07-22T08:47:01;70.67;;;59.97;;
3811;SDS011;1921;49.368;11.068;2022-07-22T08:49:27;71.10;;;59.60;;
3811;SDS011;1921;49.368;11.068;2022-07-22T08:51:53;71.50;;;59.73;;
3811;SDS011;1921;49.368;11.068;2022-07-22T08:54:19;79.87;;;60.97;;
3811;SDS011;1921;49.368;11.068;2022-07-22T08:56:46;74.17;;;61.20;;
3811;SDS011;1921;49.368;11.068;2022-07-22T08:59:13;71.38;;;58.65;;
3811;SDS011;1921;49.368;11.068;2022-07-22T09:02:00;71.73;;;58.90;;
3811;SDS011;1921;49.368;11.068;2022-07-22T09:04:56;67.27;;;56.13;;
3811;SDS011;1921;49.368;11.068;2022-07-22T09:09:59;70.70;;;58.03;;
3811;SDS011;1921;49.368;11.068;2022-07-22T09:12:26;73.30;;;59.97;;
3811;SDS011;1921;49.368;11.068;2022-07-22T09:14:57;69.70;;;58.23;;
3811;SDS011;1921;49.368;11.068;2022-07-22T09:17:32;70.17;;;59.60;;
3811;SDS011;1921;49.368;11.068;2022-07-22T09:20:01;70.37;;;60.30;;
3811;SDS011;1921;49.368;11.068;2022-07-22T09:22:41;75.20;;;60.67;;
3811;SDS011;1921;49.368;11.068;2022-07-22T09:25:29;71.30;;;60.23;;
3811;SDS011;1921;49.368;11.068;2022-07-22T09:30:33;74.20;;;60.80;;
3811;SDS011;1921;49.368;11.068;2022-07-22T09:33:02;72.57;;;60.45;;
3811;SDS011;1921;49.368;11.068;2022-07-22T09:35:30;77.32;;;60.90;;
3811;SDS011;1921;49.368;11.068;2022-07-22T09:37:57;75.22;;;61.42;;
3811;SDS011;1921;49.368;11.068;2022-07-22T09:40:29;75.05;;;61.25;;
3811;SDS011;1921;49.368;11.068;2022-07-22T09:43:02;73.10;;;60.65;;
3811;SDS011;1921;49.368;11.068;2022-07-22T09:45:43;71.72;;;60.58;;
3811;SDS011;1921;49.368;11.068;2022-07-22T09:48:24;72.22;;;60.00;;
3811;SDS011;1921;49.368;11.068;2022-07-22T09:50:51;70.80;;;59.40;;
3811;SDS011;1921;49.368;11.068;2022-07-22T09:53:19;71.95;;;60.90;;
3811;SDS011;1921;49.368;11.068;2022-07-22T09:55:48;73.00;;;61.67;;
3811;SDS011;1921;49.368;11.068;2022-07-22T09:58:14;72.28;;;60.40;;
3811;SDS011;1921;49.368;11.068;2022-07-22T10:00:41;73.18;;;61.05;;
3811;SDS011;1921;49.368;11.068;2022-07-22T10:03:08;78.22;;;60.72;;
3811;SDS011;1921;49.368;11.068;2022-07-22T10:05:42;70.43;;;58.75;;
3811;SDS011;1921;49.368;11.068;2022-07-22T10:08:08;75.22;;;61.03;;
3811;SDS011;1921;49.368;11.068;2022-07-22T10:10:35;76.28;;;60.65;;
3811;SDS011;1921;49.368;11.068;2022-07-22T10:13:04;74.30;;;59.10;;
3811;SDS011;1921;49.368;11.068;2022-07-22T10:15:34;71.53;;;60.28;;
3811;SDS011;1921;49.368;11.068;2022-07-22T10:18:05;71.15;;;60.30;;
3811;SDS011;1921;49.368;11.068;2022-07-22T10:20:38;70.28;;;59.35;;
3811;SDS011;1921;49.368;11.068;2022-07-22T10:23:08;70.63;;;59.17;;
3811;SDS011;1921;49.368;11.068;2022-07-22T10:31:20;69.63;;;59.22;;
3811;SDS011;1921;49.368;11.068;2022-07-22T10:33:53;78.00;;;60.47;;
3811;SDS011;1921;49.368;11.068;2022-07-22T10:36:31;70.40;;;60.20;;
3811;SDS011;1921;49.368;11.068;2022-07-22T10:39:09;75.65;;;60.10;;
3811;SDS011;1921;49.368;11.068;2022-07-22T10:41:40;73.50;;;60.47;;
3811;SDS011;1921;49.368;11.068;2022-07-22T10:44:09;73.68;;;59.85;;
3811;SDS011;1921;49.368;11.068;2022-07-22T10:46:48;68.50;;;57.42;;
3811;SDS011;1921;49.368;11.068;2022-07-22T10:49:20;68.82;;;57.83;;
3811;SDS011;1921;49.368;11.068;2022-07-22T10:57:43;70.10;;;58.92;;
3811;SDS011;1921;49.368;11.068;2022-07-22T11:00:09;69.68;;;59.85;;
3811;SDS011;1921;49.368;11.068;2022-07-22T11:02:35;68.50;;;59.15;;
3811;SDS011;1921;49.368;11.068;2022-07-22T11:05:03;69.00;;;58.92;;
3811;SDS011;1921;49.368;11.068;2022-07-22T11:07:29;67.82;;;58.92;;
3811;SDS011;1921;49.368;11.068;2022-07-22T11:10:07;76.78;;;59.95;;
3811;SDS011;1921;49.368;11.068;2022-07-22T11:12:45;76.20;;;59.50;;
3811;SDS011;1921;49.368;11.068;2022-07-22T11:15:13;70.50;;;59.78;;
3811;SDS011;1921;49.368;11.068;2022-07-22T11:17:39;68.55;;;59.38;;
3811;SDS011;1921;49.368;11.068;2022-07-22T11:20:09;67.68;;;58.72;;
3811;SDS011;1921;49.368;11.068;2022-07-22T11:22:37;68.20;;;59.25;;
3811;SDS011;1921;49.368;11.068;2022-07-22T11:25:04;69.90;;;59.27;;
3811;SDS011;1921;49.368;11.068;2022-07-22T11:27:33;71.20;;;59.73;;
3811;SDS011;1921;49.368;11.068;2022-07-22T11:29:59;69.20;;;59.20;;
3811;SDS011;1921;49.368;11.068;2022-07-22T11:32:26;70.33;;;59.70;;
3811;SDS011;1921;49.368;11.068;2022-07-22T11:34:57;68.50;;;59.37;;
3811;SDS011;1921;49.368;11.068;2022-07-22T11:37:25;67.10;;;58.17;;
3811;SDS011;1921;49.368;11.068;2022-07-22T11:40:07;69.05;;;58.78;;
3811;SDS011;1921;49.368;11.068;2022-07-22T11:42:34;69.47;;;59.08;;
3811;SDS011;1921;49.368;11.068;2022-07-22T11:45:00;70.07;;;59.55;;
3811;SDS011;1921;49.368;11.068;2022-07-22T11:47:27;73.07;;;59.58;;
3811;SDS011;1921;49.368;11.068;2022-07-22T11:49:53;73.93;;;59.83;;
3811;SDS011;1921;49.368;11.068;2022-07-22T11:52:19;69.85;;;58.78;;
3811;SDS011;1921;49.368;11.068;2022-07-22T11:54:44;68.38;;;58.80;;
3811;SDS011;1921;49.368;11.068;2022-07-22T11:57:12;67.65;;;58.53;;
3811;SDS011;1921;49.368;11.068;2022-07-22T11:59:39;69.00;;;59.25;;
3811;SDS011;1921;49.368;11.068;2022-07-22T12:02:06;71.05;;;58.85;;
3811;SDS011;1921;49.368;11.068;2022-07-22T12:04:34;69.07;;;59.20;;
3811;SDS011;1921;49.368;11.068;2022-07-22T12:07:02;69.93;;;60.08;;
3811;SDS011;1921;49.368;11.068;2022-07-22T12:09:30;68.97;;;57.30;;
3811;SDS011;1921;49.368;11.068;2022-07-22T12:11:59;68.32;;;59.42;;
3811;SDS011;1921;49.368;11.068;2022-07-22T12:14:26;70.07;;;59.72;;
3811;SDS011;1921;49.368;11.068;2022-07-22T12:17:00;70.05;;;59.72;;
3811;SDS011;1921;49.368;11.068;2022-07-22T12:19:29;69.00;;;59.90;;
3811;SDS011;1921;49.368;11.068;2022-07-22T12:22:05;70.70;;;59.92;;
3811;SDS011;1921;49.368;11.068;2022-07-22T12:24:45;69.53;;;58.83;;
3811;SDS011;1921;49.368;11.068;2022-07-22T12:27:23;70.85;;;60.13;;
3811;SDS011;1921;49.368;11.068;2022-07-22T12:29:49;70.10;;;59.65;;
3811;SDS011;1921;49.368;11.068;2022-07-22T12:32:16;70.03;;;59.63;;
3811;SDS011;1921;49.368;11.068;2022-07-22T12:40:11;70.00;;;59.85;;
3811;SDS011;1921;49.368;11.068;2022-07-22T12:42:59;72.28;;;61.50;;
3811;SDS011;1921;49.368;11.068;2022-07-22T12:45:30;73.45;;;61.10;;
3811;SDS011;1921;49.368;11.068;2022-07-22T12:50:29;76.35;;;60.90;;
3811;SDS011;1921;49.368;11.068;2022-07-22T12:52:59;70.13;;;59.10;;
3811;SDS011;1921;49.368;11.068;2022-07-22T12:55:32;70.38;;;60.08;;
3811;SDS011;1921;49.368;11.068;2022-07-22T12:58:04;71.20;;;58.60;;
3811;SDS011;1921;49.368;11.068;2022-07-22T13:00:35;67.65;;;58.03;;
3811;SDS011;1921;49.368;11.068;2022-07-22T13:03:17;65.13;;;55.92;;
3811;SDS011;1921;49.368;11.068;2022-07-22T13:05:48;70.22;;;59.47;;
3811;SDS011;1921;49.368;11.068;2022-07-22T13:08:20;70.55;;;60.00;;
3811;SDS011;1921;49.368;11.068;2022-07-22T13:10:48;71.13;;;58.58;;
3811;SDS011;1921;49.368;11.068;2022-07-22T13:13:15;69.57;;;59.45;;
3811;SDS011;1921;49.368;11.068;2022-07-22T13:15:40;68.97;;;59.42;;
3811;SDS011;1921;49.368;11.068;2022-07-22T13:18:06;69.43;;;59.78;;
3811;SDS011;1921;49.368;11.068;2022-07-22T13:20:32;68.70;;;59.25;;
3811;SDS011;1921;49.368;11.068;2022-07-22T13:22:59;71.45;;;60.15;;
3811;SDS011;1921;49.368;11.068;2022-07-22T13:25:25;71.97;;;59.67;;
3811;SDS011;1921;49.368;11.068;2022-07-22T13:27:51;74.43;;;60.30;;
3811;SDS011;1921;49.368;11.068;2022-07-22T13:30:19;70.38;;;59.97;;
3811;SDS011;1921;49.368;11.068;2022-07-22T13:32:44;71.50;;;60.45;;
3811;SDS011;1921;49.368;11.068;2022-07-22T13:35:10;70.18;;;60.22;;
3811;SDS011;1921;49.368;11.068;2022-07-22T13:37:36;69.85;;;60.33;;
3811;SDS011;1921;49.368;11.068;2022-07-22T13:40:03;69.68;;;59.85;;
3811;SDS011;1921;49.368;11.068;2022-07-22T13:42:29;70.03;;;60.90;;
3811;SDS011;1921;49.368;11.068;2022-07-22T13:44:55;72.07;;;60.80;;
3811;SDS011;1921;49.368;11.068;2022-07-22T13:47:21;72.25;;;60.72;;
3811;SDS011;1921;49.368;11.068;2022-07-22T13:49:47;74.32;;;59.67;;
3811;SDS011;1921;49.368;11.068;2022-07-22T13:52:14;76.10;;;60.83;;
3811;SDS011;1921;49.368;11.068;2022-07-22T13:54:40;72.30;;;60.58;;
3811;SDS011;1921;49.368;11.068;2022-07-22T13:57:06;70.38;;;60.20;;
3811;SDS011;1921;49.368;11.068;2022-07-22T13:59:34;69.22;;;60.33;;
3811;SDS011;1921;49.368;11.068;2022-07-22T14:01:59;73.25;;;60.55;;
3811;SDS011;1921;49.368;11.068;2022-07-22T14:04:26;71.13;;;60.55;;
3811;SDS011;1921;49.368;11.068;2022-07-22T14:06:52;69.93;;;60.38;;
3811;SDS011;1921;49.368;11.068;2022-07-22T14:09:18;71.60;;;60.25;;
3811;SDS011;1921;49.368;11.068;2022-07-22T14:11:44;70.65;;;60.22;;
3811;SDS011;1921;49.368;11.068;2022-07-22T14:14:10;72.75;;;59.95;;
3811;SDS011;1921;49.368;11.068;2022-07-22T14:16:36;68.78;;;59.78;;
3811;SDS011;1921;49.368;11.068;2022-07-22T14:19:06;70.05;;;60.25;;
3811;SDS011;1921;49.368;11.068;2022-07-22T14:21:34;69.18;;;60.25;;
3811;SDS011;1921;49.368;11.068;2022-07-22T14:24:02;69.80;;;60.05;;
3811;SDS011;1921;49.368;11.068;2022-07-22T14:26:29;71.63;;;59.50;;
3811;SDS011;1921;49.368;11.068;2022-07-22T14:28:56;72.30;;;59.90;;
3811;SDS011;1921;49.368;11.068;2022-07-22T14:31:22;69.20;;;60.10;;
3811;SDS011;1921;49.368;11.068;2022-07-22T14:33:47;70.57;;;60.00;;
3811;SDS011;1921;49.368;11.068;2022-07-22T14:36:13;69.22;;;59.45;;
3811;SDS011;1921;49.368;11.068;2022-07-22T14:38:40;69.18;;;60.42;;
3811;SDS011;1921;49.368;11.068;2022-07-22T14:41:06;69.57;;;59.97;;
3811;SDS011;1921;49.368;11.068;2022-07-22T14:43:33;68.35;;;59.53;;
3811;SDS011;1921;49.368;11.068;2022-07-22T14:45:59;69.05;;;59.55;;
3811;SDS011;1921;49.368;11.068;2022-07-22T14:48:26;70.10;;;60.75;;
3811;SDS011;1921;49.368;11.068;2022-07-22T14:50:53;71.20;;;60.13;;
3811;SDS011;1921;49.368;11.068;2022-07-22T14:53:19;71.57;;;60.35;;
3811;SDS011;1921;49.368;11.068;2022-07-22T14:55:44;69.07;;;59.78;;
3811;SDS011;1921;49.368;11.068;2022-07-22T14:58:10;70.90;;;60.28;;